Time;durP1;ratioP1;P1;durP2;ratioP2;P2;SDS_P1;SDS_P2;PMS_P1;PMS_P2;Temp;Humidity;BMP_temperature;BMP_pressure;BME280_temperature;BME280_humidity;BME280_pressure;Samples;Min_cycle;Max_cycle;Signal;HPM_P1;HPM_P2
2023/10/31 00:00:12;;;;;;;9.88;3.90;;;;;;;;;;5053017;28;20016;-88
2023/10/31 00:02:37;;;;;;;5.82;3.30;;;;;;;;;;5053046;28;20021;-87
2023/10/31 00:05:03;;;;;;;8.55;3.67;;;;;;;;;;5052995;28;20013;-88
2023/10/31 00:07:30;;;;;;;8.75;3.33;;;;;;;;;;5053247;28;20017;-88
2023/10/31 00:09:56;;;;;;;12.45;4.00;;;;;;;;;;5052784;28;20182;-88
2023/10/31 00:12:21;;;;;;;7.22;4.18;;;;;;;;;;5052703;28;20103;-88
2023/10/31 00:14:46;;;;;;;9.43;4.00;;;;;;;;;;5047889;28;20025;-88
2023/10/31 00:17:11;;;;;;;9.02;3.90;;;;;;;;;;5052538;28;20029;-88
2023/10/31 00:19:37;;;;;;;10.15;4.47;;;;;;;;;;5052580;28;20013;-89
2023/10/31 00:22:02;;;;;;;8.70;3.97;;;;;;;;;;5052607;28;20058;-88
2023/10/31 00:24:28;;;;;;;13.65;4.63;;;;;;;;;;5052606;28;20024;-88
2023/10/31 00:26:53;;;;;;;10.80;4.85;;;;;;;;;;5052802;28;20021;-88
2023/10/31 00:29:18;;;;;;;9.20;4.43;;;;;;;;;;5052543;28;20123;-88
2023/10/31 00:31:44;;;;;;;9.55;5.07;;;;;;;;;;5052466;28;20170;-87
2023/10/31 00:34:10;;;;;;;14.80;6.38;;;;;;;;;;5052220;28;20651;-88
2023/10/31 00:36:35;;;;;;;12.00;5.60;;;;;;;;;;5052645;28;20021;-88
2023/10/31 00:39:00;;;;;;;13.82;5.35;;;;;;;;;;5052516;28;20023;-87
2023/10/31 00:41:25;;;;;;;12.25;6.47;;;;;;;;;;5052333;28;20100;-88
2023/10/31 00:43:50;;;;;;;14.60;6.90;;;;;;;;;;5052073;28;20119;-88
2023/10/31 00:46:16;;;;;;;18.67;7.93;;;;;;;;;;5050103;28;20029;-88
2023/10/31 00:48:41;;;;;;;14.85;7.65;;;;;;;;;;5052163;28;20420;-88
2023/10/31 00:51:06;;;;;;;18.13;7.53;;;;;;;;;;5052235;28;20240;-88
2023/10/31 00:53:32;;;;;;;20.00;7.55;;;;;;;;;;5052133;28;20048;-88
2023/10/31 00:55:57;;;;;;;15.80;7.68;;;;;;;;;;5052191;28;20074;-88
2023/10/31 00:58:23;;;;;;;16.00;7.53;;;;;;;;;;5052273;28;20009;-87
2023/10/31 01:00:48;;;;;;;16.65;8.40;;;;;;;;;;5052258;28;20017;-88
2023/10/31 01:03:13;;;;;;;14.82;6.25;;;;;;;;;;5052009;28;20075;-88
2023/10/31 01:05:38;;;;;;;14.60;6.68;;;;;;;;;;5058910;28;20123;-88
2023/10/31 01:08:04;;;;;;;15.77;7.38;;;;;;;;;;5059103;28;20021;-87
2023/10/31 01:10:29;;;;;;;15.88;8.48;;;;;;;;;;5051983;28;20013;-88
2023/10/31 01:12:54;;;;;;;15.13;7.25;;;;;;;;;;5051611;28;20044;-87
2023/10/31 01:15:20;;;;;;;15.95;7.45;;;;;;;;;;5051420;28;20025;-87
2023/10/31 01:17:45;;;;;;;14.48;7.28;;;;;;;;;;5051802;28;20035;-87
2023/10/31 01:20:11;;;;;;;17.33;7.13;;;;;;;;;;5051464;28;20028;-87
2023/10/31 01:22:37;;;;;;;17.17;6.50;;;;;;;;;;5052175;28;20465;-87
2023/10/31 01:25:02;;;;;;;16.38;7.22;;;;;;;;;;5051761;28;20025;-87
2023/10/31 01:27:27;;;;;;;17.83;7.13;;;;;;;;;;5051614;28;20399;-87
2023/10/31 01:29:52;;;;;;;13.38;6.82;;;;;;;;;;5051617;28;20021;-87
2023/10/31 01:32:18;;;;;;;17.38;7.00;;;;;;;;;;5051940;28;20120;-87
2023/10/31 01:34:45;;;;;;;14.60;7.18;;;;;;;;;;5055466;28;20049;-87
2023/10/31 01:37:11;;;;;;;16.60;8.02;;;;;;;;;;5055848;28;20126;-87
2023/10/31 01:39:36;;;;;;;18.08;8.07;;;;;;;;;;5053201;28;20088;-89
2023/10/31 01:42:02;;;;;;;16.60;7.40;;;;;;;;;;5044512;28;20047;-88
2023/10/31 01:44:27;;;;;;;17.55;7.53;;;;;;;;;;5055368;28;20021;-88
2023/10/31 01:46:52;;;;;;;21.42;7.80;;;;;;;;;;5055509;28;20107;-87
2023/10/31 01:49:17;;;;;;;19.48;7.40;;;;;;;;;;5055127;28;20028;-87
2023/10/31 01:51:44;;;;;;;17.42;7.82;;;;;;;;;;5055810;28;20040;-88
2023/10/31 01:54:10;;;;;;;15.88;8.10;;;;;;;;;;5055433;28;20365;-89
2023/10/31 01:56:35;;;;;;;17.05;7.57;;;;;;;;;;5054962;28;20035;-87
2023/10/31 01:59:01;;;;;;;18.10;7.35;;;;;;;;;;5040681;28;20060;-88
2023/10/31 02:01:27;;;;;;;17.60;7.03;;;;;;;;;;5039873;28;20091;-89
2023/10/31 02:03:53;;;;;;;15.38;7.35;;;;;;;;;;5055309;28;20541;-87
2023/10/31 02:06:18;;;;;;;18.67;6.70;;;;;;;;;;5054968;28;20025;-87
2023/10/31 02:08:44;;;;;;;15.50;7.97;;;;;;;;;;5055237;28;20109;-88
2023/10/31 02:11:10;;;;;;;15.15;7.70;;;;;;;;;;5055061;28;20354;-87
2023/10/31 02:13:35;;;;;;;15.13;7.13;;;;;;;;;;5055052;28;20111;-87
2023/10/31 02:16:01;;;;;;;14.25;6.82;;;;;;;;;;5054554;28;20115;-88
2023/10/31 02:18:27;;;;;;;14.48;7.15;;;;;;;;;;5054663;28;20021;-88
2023/10/31 02:20:52;;;;;;;13.25;6.90;;;;;;;;;;5054942;28;20013;-88
2023/10/31 02:23:17;;;;;;;13.55;6.45;;;;;;;;;;5040667;28;20013;-87
2023/10/31 02:25:42;;;;;;;11.38;6.72;;;;;;;;;;5054534;28;20086;-88
2023/10/31 02:28:08;;;;;;;17.00;6.47;;;;;;;;;;5054786;28;20092;-88
2023/10/31 02:30:34;;;;;;;14.85;7.32;;;;;;;;;;5055218;28;20048;-87
2023/10/31 02:33:00;;;;;;;10.70;6.40;;;;;;;;;;5068737;28;20023;-87
2023/10/31 02:35:26;;;;;;;10.65;6.15;;;;;;;;;;5054371;28;20375;-88
2023/10/31 02:37:51;;;;;;;10.73;5.90;;;;;;;;;;5054436;28;20115;-88
2023/10/31 02:40:16;;;;;;;11.35;5.93;;;;;;;;;;5054843;28;20037;-88
2023/10/31 02:42:41;;;;;;;9.77;5.60;;;;;;;;;;5054331;28;20464;-89
2023/10/31 02:45:07;;;;;;;10.90;5.88;;;;;;;;;;5054084;28;20445;-88
2023/10/31 02:47:33;;;;;;;12.50;6.00;;;;;;;;;;5054180;28;20032;-88
2023/10/31 02:49:58;;;;;;;13.10;5.80;;;;;;;;;;5053130;28;20036;-89
2023/10/31 02:52:23;;;;;;;9.65;6.35;;;;;;;;;;5040968;28;20488;-89
2023/10/31 02:54:49;;;;;;;14.35;6.78;;;;;;;;;;5054101;28;20025;-88
2023/10/31 02:57:15;;;;;;;9.88;5.88;;;;;;;;;;5053771;28;20021;-87
2023/10/31 02:59:40;;;;;;;10.52;5.10;;;;;;;;;;5054086;28;20033;-88
2023/10/31 03:02:08;;;;;;;10.15;5.90;;;;;;;;;;5053963;28;20028;-88
2023/10/31 03:04:36;;;;;;;11.48;5.35;;;;;;;;;;5053894;28;20121;-88
2023/10/31 03:07:01;;;;;;;10.00;5.50;;;;;;;;;;5053671;28;20107;-88
2023/10/31 03:09:26;;;;;;;12.38;5.38;;;;;;;;;;5053941;28;20055;-88
2023/10/31 03:11:54;;;;;;;9.10;4.10;;;;;;;;;;5053850;28;20021;-88
2023/10/31 03:14:19;;;;;;;10.23;5.22;;;;;;;;;;5053430;28;20358;-87
2023/10/31 03:16:45;;;;;;;9.32;5.10;;;;;;;;;;5054545;28;20349;-87
2023/10/31 03:19:10;;;;;;;12.25;4.68;;;;;;;;;;5053214;28;20025;-89
2023/10/31 03:21:35;;;;;;;9.07;4.05;;;;;;;;;;5053628;28;20036;-87
2023/10/31 03:24:01;;;;;;;9.80;4.38;;;;;;;;;;5053566;28;20025;-88
2023/10/31 03:26:26;;;;;;;8.73;4.78;;;;;;;;;;5053683;28;20099;-88
2023/10/31 03:28:56;;;;;;;8.57;5.28;;;;;;;;;;5053861;28;20024;-88
2023/10/31 03:31:22;;;;;;;12.63;5.28;;;;;;;;;;5053520;28;20472;-88
2023/10/31 03:33:47;;;;;;;8.93;4.22;;;;;;;;;;5053508;28;20017;-88
2023/10/31 03:36:12;;;;;;;8.95;5.35;;;;;;;;;;5053402;28;20028;-88
2023/10/31 03:38:37;;;;;;;9.10;4.50;;;;;;;;;;5053554;28;20154;-88
2023/10/31 03:41:03;;;;;;;9.25;5.32;;;;;;;;;;5053325;28;20013;-89
2023/10/31 03:43:28;;;;;;;7.78;4.03;;;;;;;;;;5053341;28;20013;-89
2023/10/31 03:45:54;;;;;;;10.02;4.90;;;;;;;;;;5053165;28;20021;-89
2023/10/31 03:48:19;;;;;;;14.20;4.68;;;;;;;;;;5053150;28;20012;-88
2023/10/31 03:50:44;;;;;;;9.45;4.50;;;;;;;;;;5053022;28;20349;-88
2023/10/31 03:53:10;;;;;;;10.52;5.32;;;;;;;;;;5053073;28;20464;-88
2023/10/31 03:55:35;;;;;;;13.88;4.75;;;;;;;;;;5052852;28;20025;-88
2023/10/31 03:58:00;;;;;;;10.93;4.80;;;;;;;;;;5053304;28;20385;-88
2023/10/31 04:00:26;;;;;;;9.10;4.93;;;;;;;;;;5053051;28;20444;-88
2023/10/31 04:02:51;;;;;;;9.55;5.03;;;;;;;;;;5053325;28;20497;-88
2023/10/31 04:05:16;;;;;;;9.48;5.72;;;;;;;;;;5052706;28;20020;-91
2023/10/31 04:07:43;;;;;;;8.73;4.80;;;;;;;;;;5052532;28;20025;-88
2023/10/31 04:10:08;;;;;;;11.35;5.72;;;;;;;;;;5052770;28;20029;-88
2023/10/31 04:12:33;;;;;;;10.57;4.18;;;;;;;;;;5052542;28;20033;-88
2023/10/31 04:15:01;;;;;;;8.45;4.65;;;;;;;;;;5052409;28;20063;-88
2023/10/31 04:17:26;;;;;;;8.13;5.32;;;;;;;;;;5052703;28;20020;-88
2023/10/31 04:19:52;;;;;;;10.13;5.88;;;;;;;;;;5052652;28;20494;-88
2023/10/31 04:22:17;;;;;;;11.55;5.85;;;;;;;;;;5052748;28;20477;-89
2023/10/31 04:24:43;;;;;;;10.07;4.80;;;;;;;;;;5051930;28;20104;-89
2023/10/31 04:27:08;;;;;;;10.50;5.05;;;;;;;;;;5052529;28;20056;-88
2023/10/31 04:29:36;;;;;;;10.77;4.97;;;;;;;;;;5052303;28;20032;-89
2023/10/31 04:32:01;;;;;;;9.93;5.32;;;;;;;;;;5052372;28;20021;-88
2023/10/31 04:34:26;;;;;;;9.95;5.00;;;;;;;;;;5052092;28;20078;-88
2023/10/31 04:36:52;;;;;;;8.88;5.25;;;;;;;;;;5044364;28;20017;-88
2023/10/31 04:39:17;;;;;;;11.05;5.88;;;;;;;;;;5048894;28;20048;-88
2023/10/31 04:41:42;;;;;;;9.13;5.60;;;;;;;;;;5052060;28;20045;-89
2023/10/31 04:44:07;;;;;;;12.27;5.82;;;;;;;;;;5051999;28;20028;-89
2023/10/31 04:46:33;;;;;;;10.10;5.00;;;;;;;;;;5052102;28;20457;-88
2023/10/31 04:48:59;;;;;;;10.57;4.68;;;;;;;;;;5052175;28;20118;-88
2023/10/31 04:51:24;;;;;;;10.48;5.35;;;;;;;;;;5051926;28;20062;-89
2023/10/31 04:53:49;;;;;;;11.30;5.43;;;;;;;;;;5052123;28;20029;-88
2023/10/31 04:56:15;;;;;;;10.60;6.15;;;;;;;;;;5051942;28;20024;-87
2023/10/31 04:58:44;;;;;;;10.45;6.07;;;;;;;;;;5051949;28;20051;-88
2023/10/31 05:01:10;;;;;;;11.00;5.72;;;;;;;;;;5052091;28;20017;-89
2023/10/31 05:03:36;;;;;;;9.68;5.57;;;;;;;;;;5051922;28;20426;-89
2023/10/31 05:06:01;;;;;;;8.95;5.03;;;;;;;;;;5051959;28;20027;-88
2023/10/31 05:08:29;;;;;;;11.60;5.47;;;;;;;;;;5054416;28;20025;-88
2023/10/31 05:10:55;;;;;;;14.10;5.72;;;;;;;;;;5056311;28;20021;-88
2023/10/31 05:13:20;;;;;;;11.40;5.28;;;;;;;;;;5055990;28;20064;-87
2023/10/31 05:15:45;;;;;;;15.27;5.47;;;;;;;;;;5055982;28;20025;-88
2023/10/31 05:18:13;;;;;;;8.88;5.95;;;;;;;;;;5056252;28;20019;-89
2023/10/31 05:20:39;;;;;;;11.77;6.10;;;;;;;;;;5055917;28;20322;-88
2023/10/31 05:23:04;;;;;;;8.80;5.70;;;;;;;;;;5056000;28;20023;-88
2023/10/31 05:25:30;;;;;;;9.88;5.70;;;;;;;;;;5055681;28;20040;-88
2023/10/31 05:27:55;;;;;;;9.35;5.88;;;;;;;;;;5055648;28;20019;-89
2023/10/31 05:30:20;;;;;;;9.18;5.43;;;;;;;;;;5055905;28;20075;-89
2023/10/31 05:32:46;;;;;;;11.13;6.00;;;;;;;;;;5056139;28;20078;-88
2023/10/31 05:35:14;;;;;;;9.73;5.88;;;;;;;;;;5055559;28;20021;-88
2023/10/31 05:37:39;;;;;;;10.10;5.80;;;;;;;;;;5055711;28;20084;-88
2023/10/31 05:40:05;;;;;;;11.10;6.32;;;;;;;;;;5056089;28;20036;-88
2023/10/31 05:42:30;;;;;;;10.32;5.65;;;;;;;;;;5055444;28;20028;-88
2023/10/31 05:44:56;;;;;;;11.77;6.53;;;;;;;;;;5055236;28;20050;-88
2023/10/31 05:47:22;;;;;;;11.60;6.70;;;;;;;;;;5055491;28;20025;-88
2023/10/31 05:49:47;;;;;;;8.68;5.38;;;;;;;;;;5055245;28;20036;-87
2023/10/31 05:52:13;;;;;;;12.27;6.63;;;;;;;;;;5055490;28;20013;-88
2023/10/31 05:54:38;;;;;;;9.63;5.82;;;;;;;;;;5054988;28;20017;-87
2023/10/31 05:57:03;;;;;;;10.13;6.20;;;;;;;;;;5055298;28;20032;-88
2023/10/31 05:59:32;;;;;;;13.07;7.07;;;;;;;;;;5055376;28;20052;-89
2023/10/31 06:01:57;;;;;;;13.15;7.03;;;;;;;;;;5055172;28;20469;-88
2023/10/31 06:04:25;;;;;;;12.00;7.15;;;;;;;;;;5054966;28;20032;-88
2023/10/31 06:06:53;;;;;;;13.73;7.03;;;;;;;;;;5054906;28;20029;-88
2023/10/31 06:09:18;;;;;;;15.55;8.20;;;;;;;;;;5054928;28;20074;-88
2023/10/31 06:11:44;;;;;;;15.15;6.97;;;;;;;;;;5054975;28;20116;-87
2023/10/31 06:14:11;;;;;;;12.02;7.20;;;;;;;;;;5054714;28;20032;-88
2023/10/31 06:16:39;;;;;;;14.32;6.68;;;;;;;;;;5054747;28;20444;-88
2023/10/31 06:19:05;;;;;;;15.85;6.88;;;;;;;;;;5054212;28;20028;-88
2023/10/31 06:21:30;;;;;;;11.35;6.88;;;;;;;;;;5054737;28;20021;-88
2023/10/31 06:23:55;;;;;;;15.05;7.45;;;;;;;;;;5054681;28;20020;-88
2023/10/31 06:26:20;;;;;;;14.27;8.00;;;;;;;;;;5054869;28;20024;-88
2023/10/31 06:28:46;;;;;;;13.68;7.30;;;;;;;;;;5054779;28;20033;-88
2023/10/31 06:31:11;;;;;;;15.45;7.47;;;;;;;;;;5054435;28;20075;-88
2023/10/31 06:33:36;;;;;;;14.05;7.20;;;;;;;;;;5054441;28;20029;-89
2023/10/31 06:36:01;;;;;;;17.27;7.88;;;;;;;;;;5054305;28;20071;-87
2023/10/31 06:38:27;;;;;;;14.80;7.80;;;;;;;;;;5047448;28;20040;-88
2023/10/31 06:40:52;;;;;;;15.13;7.72;;;;;;;;;;5047628;28;20020;-87
2023/10/31 06:43:17;;;;;;;15.35;8.00;;;;;;;;;;5054194;28;20041;-87
2023/10/31 06:45:43;;;;;;;15.48;7.10;;;;;;;;;;5054966;28;20028;-90
2023/10/31 06:48:09;;;;;;;11.88;7.18;;;;;;;;;;5052449;28;20470;-89
2023/10/31 06:50:34;;;;;;;16.38;6.68;;;;;;;;;;5043708;28;20031;-90
2023/10/31 06:52:59;;;;;;;15.40;7.43;;;;;;;;;;5055119;28;20461;-90
2023/10/31 06:55:25;;;;;;;14.18;7.75;;;;;;;;;;5054635;28;20116;-89
2023/10/31 06:57:50;;;;;;;12.43;6.05;;;;;;;;;;5054291;28;20036;-89
2023/10/31 07:00:15;;;;;;;15.75;6.75;;;;;;;;;;5054247;28;20021;-92
2023/10/31 07:02:40;;;;;;;12.85;6.40;;;;;;;;;;5054784;28;20547;-89
2023/10/31 07:05:06;;;;;;;13.15;6.75;;;;;;;;;;5048711;28;20025;-89
2023/10/31 07:07:31;;;;;;;13.30;6.78;;;;;;;;;;5054002;28;20431;-90
2023/10/31 07:09:56;;;;;;;12.48;6.72;;;;;;;;;;5053389;28;20123;-90
2023/10/31 07:12:22;;;;;;;14.73;5.75;;;;;;;;;;5053769;28;20097;-89
2023/10/31 07:14:47;;;;;;;13.68;6.68;;;;;;;;;;5054186;28;20429;-92
2023/10/31 07:17:12;;;;;;;12.25;6.07;;;;;;;;;;5053720;28;20051;-91
2023/10/31 07:19:38;;;;;;;14.52;7.63;;;;;;;;;;5053903;28;20024;-90
2023/10/31 07:22:03;;;;;;;10.95;6.25;;;;;;;;;;5054053;28;20066;-91
2023/10/31 07:24:28;;;;;;;14.68;7.20;;;;;;;;;;5054301;28;20035;-91
2023/10/31 07:26:54;;;;;;;14.48;6.72;;;;;;;;;;5054692;28;20017;-92
2023/10/31 07:29:19;;;;;;;14.00;6.10;;;;;;;;;;5054024;28;20020;-92
2023/10/31 07:31:44;;;;;;;11.77;6.35;;;;;;;;;;5053976;28;20029;-93
2023/10/31 07:34:11;;;;;;;12.20;6.18;;;;;;;;;;5054326;28;20090;-90
2023/10/31 07:36:36;;;;;;;12.75;6.75;;;;;;;;;;5060620;28;20477;-91
2023/10/31 07:39:03;;;;;;;18.35;7.45;;;;;;;;;;5054909;28;20013;-91
2023/10/31 07:41:28;;;;;;;12.80;6.28;;;;;;;;;;5053905;28;20063;-91
2023/10/31 07:43:54;;;;;;;10.60;6.43;;;;;;;;;;5069148;28;20024;-92
2023/10/31 07:46:19;;;;;;;11.65;5.90;;;;;;;;;;5057024;28;20039;-92
2023/10/31 07:48:44;;;;;;;12.65;6.47;;;;;;;;;;5061640;28;20032;-92
2023/10/31 07:51:10;;;;;;;11.18;5.82;;;;;;;;;;5062767;28;20034;-91
2023/10/31 07:53:35;;;;;;;13.27;6.28;;;;;;;;;;5070544;28;20476;-90
2023/10/31 07:56:00;;;;;;;12.32;6.35;;;;;;;;;;5064790;28;20028;-91
2023/10/31 07:58:25;;;;;;;10.07;5.35;;;;;;;;;;5074160;28;20035;-92
2023/10/31 08:00:51;;;;;;;12.65;6.22;;;;;;;;;;5063374;28;20036;-93
2023/10/31 08:03:16;;;;;;;11.35;6.63;;;;;;;;;;5064198;28;20025;-91
2023/10/31 08:05:42;;;;;;;13.75;5.95;;;;;;;;;;5059896;28;20491;-91
2023/10/31 08:08:07;;;;;;;12.52;6.75;;;;;;;;;;5054257;28;20021;-87
2023/10/31 08:10:34;;;;;;;12.90;7.15;;;;;;;;;;5053082;28;20352;-87
2023/10/31 08:12:59;;;;;;;10.73;6.05;;;;;;;;;;5052934;28;20033;-87
2023/10/31 08:15:24;;;;;;;10.18;5.70;;;;;;;;;;5052595;28;20487;-86
2023/10/31 08:17:49;;;;;;;11.30;5.00;;;;;;;;;;5052512;28;20380;-87
2023/10/31 08:20:16;;;;;;;12.98;5.43;;;;;;;;;;5041703;28;20048;-87
2023/10/31 08:22:45;;;;;;;9.82;4.97;;;;;;;;;;5042778;28;20472;-86
2023/10/31 08:25:12;;;;;;;9.52;5.18;;;;;;;;;;5052494;28;20029;-88
2023/10/31 08:27:37;;;;;;;14.52;4.70;;;;;;;;;;5052669;28;20063;-85
2023/10/31 08:30:02;;;;;;;9.48;4.68;;;;;;;;;;5061516;28;20518;-89
2023/10/31 08:32:28;;;;;;;10.60;5.10;;;;;;;;;;5064332;28;20036;-89
2023/10/31 08:34:54;;;;;;;10.02;5.05;;;;;;;;;;5058222;28;20488;-88
2023/10/31 08:37:19;;;;;;;7.63;4.75;;;;;;;;;;5060347;28;20032;-90
2023/10/31 08:39:44;;;;;;;11.15;4.93;;;;;;;;;;5064880;28;20021;-89
2023/10/31 08:42:10;;;;;;;12.20;5.10;;;;;;;;;;5073992;28;20035;-89
2023/10/31 08:44:37;;;;;;;6.85;4.80;;;;;;;;;;5069918;28;20021;-89
2023/10/31 08:47:02;;;;;;;10.77;4.68;;;;;;;;;;5064225;28;20029;-90
2023/10/31 08:49:28;;;;;;;10.20;4.35;;;;;;;;;;5064625;28;20075;-88
2023/10/31 08:51:53;;;;;;;7.55;3.88;;;;;;;;;;5063927;28;20039;-90
2023/10/31 08:54:19;;;;;;;7.78;4.38;;;;;;;;;;5063862;28;20080;-88
2023/10/31 08:56:44;;;;;;;7.57;4.20;;;;;;;;;;5063873;28;20423;-90
2023/10/31 08:59:09;;;;;;;9.85;4.35;;;;;;;;;;5063260;28;20047;-89
2023/10/31 09:01:35;;;;;;;6.55;4.43;;;;;;;;;;5062701;28;20017;-90
2023/10/31 09:04:00;;;;;;;8.65;4.38;;;;;;;;;;5062182;28;20021;-90
2023/10/31 09:06:26;;;;;;;8.63;3.88;;;;;;;;;;5063383;28;20052;-90
2023/10/31 09:08:51;;;;;;;9.63;3.70;;;;;;;;;;5062475;28;20177;-90
2023/10/31 09:11:16;;;;;;;8.45;3.97;;;;;;;;;;5064306;28;20051;-90
2023/10/31 09:13:41;;;;;;;6.97;3.58;;;;;;;;;;5064039;28;20032;-90
2023/10/31 09:16:07;;;;;;;7.85;3.67;;;;;;;;;;5063871;28;20036;-90
2023/10/31 09:18:32;;;;;;;8.40;3.83;;;;;;;;;;5063473;28;20017;-89
2023/10/31 09:20:58;;;;;;;8.05;4.40;;;;;;;;;;5062481;28;20017;-89
2023/10/31 09:23:23;;;;;;;5.82;3.30;;;;;;;;;;5062287;28;20017;-89
2023/10/31 09:25:48;;;;;;;10.68;3.40;;;;;;;;;;5063734;28;20059;-89
2023/10/31 09:28:13;;;;;;;5.57;3.70;;;;;;;;;;5069914;28;20022;-90
2023/10/31 09:30:39;;;;;;;7.72;3.60;;;;;;;;;;5068989;28;20170;-90
2023/10/31 09:33:04;;;;;;;6.03;3.35;;;;;;;;;;5063613;28;20021;-90
2023/10/31 09:35:29;;;;;;;8.75;3.75;;;;;;;;;;5062361;28;20029;-89
2023/10/31 09:37:55;;;;;;;8.73;4.15;;;;;;;;;;5061968;28;20487;-90
2023/10/31 09:40:21;;;;;;;8.48;4.32;;;;;;;;;;5060350;28;20092;-89
2023/10/31 09:42:46;;;;;;;8.98;4.03;;;;;;;;;;5056894;28;20315;-89
2023/10/31 09:45:12;;;;;;;8.38;4.28;;;;;;;;;;5092192;28;20036;-91
2023/10/31 09:47:38;;;;;;;7.32;3.85;;;;;;;;;;5058715;28;20057;-90
2023/10/31 09:50:03;;;;;;;7.50;4.18;;;;;;;;;;5059594;28;20025;-89
2023/10/31 09:52:29;;;;;;;6.70;4.28;;;;;;;;;;5060355;28;20119;-89
2023/10/31 09:54:54;;;;;;;6.30;3.05;;;;;;;;;;5061445;28;20097;-88
2023/10/31 09:57:20;;;;;;;5.82;2.90;;;;;;;;;;5061540;28;20449;-89
2023/10/31 09:59:45;;;;;;;8.65;3.08;;;;;;;;;;5061880;28;20017;-89
2023/10/31 10:02:10;;;;;;;6.82;3.30;;;;;;;;;;5060955;28;20144;-89
2023/10/31 10:04:37;;;;;;;5.35;3.40;;;;;;;;;;5062961;28;20028;-89
2023/10/31 10:07:02;;;;;;;5.57;3.00;;;;;;;;;;5071709;28;20475;-89
2023/10/31 10:09:32;;;;;;;5.57;2.90;;;;;;;;;;5060925;28;20021;-90
2023/10/31 10:11:59;;;;;;;5.90;3.08;;;;;;;;;;5054103;28;20116;-89
2023/10/31 10:14:24;;;;;;;8.18;3.72;;;;;;;;;;5060235;28;20028;-88
2023/10/31 10:16:49;;;;;;;6.63;3.25;;;;;;;;;;5059364;28;20059;-89
2023/10/31 10:19:20;;;;;;;6.20;2.60;;;;;;;;;;5060801;28;20480;-89
2023/10/31 10:21:49;;;;;;;6.53;2.83;;;;;;;;;;5059340;28;20039;-88
2023/10/31 10:24:15;;;;;;;3.95;2.65;;;;;;;;;;5063423;28;20047;-89
2023/10/31 10:26:40;;;;;;;5.75;2.30;;;;;;;;;;5063047;28;20104;-89
2023/10/31 10:29:05;;;;;;;6.25;2.58;;;;;;;;;;5060418;28;20032;-89
2023/10/31 10:31:31;;;;;;;4.78;2.92;;;;;;;;;;5063107;28;20515;-89
2023/10/31 10:33:56;;;;;;;9.65;2.95;;;;;;;;;;5068420;28;20175;-89
2023/10/31 10:36:22;;;;;;;7.70;3.10;;;;;;;;;;5057848;28;20025;-88
2023/10/31 10:38:51;;;;;;;7.80;2.97;;;;;;;;;;5059322;28;20400;-88
2023/10/31 10:41:18;;;;;;;7.07;3.33;;;;;;;;;;5057022;28;20108;-89
2023/10/31 10:43:47;;;;;;;7.70;3.38;;;;;;;;;;5059170;28;20116;-90
2023/10/31 10:46:17;;;;;;;10.32;2.97;;;;;;;;;;5058320;28;20075;-89
2023/10/31 10:48:46;;;;;;;9.48;3.28;;;;;;;;;;5057541;28;20108;-88
2023/10/31 10:51:34;;;;;;;7.45;3.33;;;;;;;;;;5056178;28;20028;-88
2023/10/31 10:54:14;;;;;;;5.43;2.60;;;;;;;;;;5055618;28;20017;-89
2023/10/31 10:56:41;;;;;;;5.75;2.88;;;;;;;;;;5055915;28;20037;-89
2023/10/31 10:59:10;;;;;;;4.13;2.55;;;;;;;;;;5047652;28;20207;-91
2023/10/31 11:01:36;;;;;;;6.07;2.42;;;;;;;;;;5052432;28;20070;-88
2023/10/31 11:04:02;;;;;;;4.32;2.20;;;;;;;;;;5055506;28;20116;-90
2023/10/31 11:06:29;;;;;;;4.53;1.77;;;;;;;;;;5054006;28;20023;-89
2023/10/31 11:08:55;;;;;;;5.43;1.88;;;;;;;;;;5053354;28;20029;-88
2023/10/31 11:11:21;;;;;;;6.15;2.00;;;;;;;;;;5045503;28;20017;-89
2023/10/31 11:13:46;;;;;;;4.60;1.90;;;;;;;;;;5041887;28;20448;-87
2023/10/31 11:16:15;;;;;;;5.55;1.95;;;;;;;;;;5053428;28;20060;-86
2023/10/31 11:18:41;;;;;;;4.20;1.92;;;;;;;;;;5053815;28;20020;-86
2023/10/31 11:21:06;;;;;;;2.80;1.60;;;;;;;;;;5053858;28;20040;-87
2023/10/31 11:23:31;;;;;;;5.30;2.53;;;;;;;;;;5053742;28;20025;-86
2023/10/31 11:25:57;;;;;;;3.83;2.30;;;;;;;;;;5051842;28;20029;-86
2023/10/31 11:28:22;;;;;;;8.20;2.42;;;;;;;;;;5054050;28;20099;-87
2023/10/31 11:30:48;;;;;;;8.60;2.17;;;;;;;;;;5053957;28;20021;-87
2023/10/31 11:33:14;;;;;;;7.05;1.98;;;;;;;;;;5073208;28;20456;-86
2023/10/31 11:35:40;;;;;;;3.83;2.35;;;;;;;;;;5053695;28;20108;-87
2023/10/31 11:38:07;;;;;;;6.55;2.60;;;;;;;;;;5053628;28;20017;-87
2023/10/31 11:40:32;;;;;;;12.95;2.30;;;;;;;;;;5053357;28;20026;-87
2023/10/31 11:42:58;;;;;;;5.55;2.78;;;;;;;;;;5053471;28;20021;-87
2023/10/31 11:45:34;;;;;;;6.28;2.20;;;;;;;;;;5054002;28;20013;-87
2023/10/31 11:47:59;;;;;;;2.90;1.90;;;;;;;;;;5053915;28;20032;-87
2023/10/31 11:50:25;;;;;;;10.05;2.40;;;;;;;;;;5053532;28;20017;-86
2023/10/31 11:53:02;;;;;;;5.90;1.95;;;;;;;;;;5053368;28;20025;-86
2023/10/31 11:55:28;;;;;;;6.35;2.13;;;;;;;;;;5040350;28;20029;-86
2023/10/31 11:57:53;;;;;;;5.53;1.90;;;;;;;;;;5053014;28;20021;-87
2023/10/31 12:00:22;;;;;;;7.15;2.08;;;;;;;;;;5053048;28;20029;-86
2023/10/31 12:03:00;;;;;;;4.93;2.03;;;;;;;;;;5053145;28;20472;-87
2023/10/31 12:05:26;;;;;;;6.78;2.13;;;;;;;;;;5053108;28;20016;-86
2023/10/31 12:07:51;;;;;;;8.82;2.28;;;;;;;;;;5053372;28;20029;-87
2023/10/31 12:10:32;;;;;;;8.98;2.30;;;;;;;;;;5052886;28;20064;-86
2023/10/31 12:12:58;;;;;;;7.70;2.22;;;;;;;;;;5044276;28;20021;-86
2023/10/31 12:15:24;;;;;;;10.15;2.42;;;;;;;;;;5053095;28;20036;-87
2023/10/31 12:17:49;;;;;;;9.05;2.17;;;;;;;;;;5052207;28;20417;-86
2023/10/31 12:20:16;;;;;;;8.15;1.92;;;;;;;;;;5052649;28;20032;-86
2023/10/31 12:22:41;;;;;;;4.47;1.70;;;;;;;;;;5052816;28;20439;-87
2023/10/31 12:25:08;;;;;;;4.18;2.10;;;;;;;;;;5053154;28;20021;-87
2023/10/31 12:27:46;;;;;;;6.97;1.92;;;;;;;;;;5052585;28;20240;-87
2023/10/31 12:30:12;;;;;;;11.50;2.10;;;;;;;;;;5052568;28;20039;-87
2023/10/31 12:32:37;;;;;;;7.30;2.00;;;;;;;;;;5052344;28;20128;-86
2023/10/31 12:35:03;;;;;;;6.63;2.20;;;;;;;;;;5052932;28;20035;-86
2023/10/31 12:37:28;;;;;;;4.68;2.10;;;;;;;;;;5052371;28;20385;-87
2023/10/31 12:39:54;;;;;;;8.70;2.20;;;;;;;;;;5052343;28;20017;-87
2023/10/31 12:42:20;;;;;;;9.55;2.72;;;;;;;;;;5052617;28;20060;-87
2023/10/31 12:44:46;;;;;;;16.83;5.53;;;;;;;;;;5052314;28;20524;-87
2023/10/31 12:47:20;;;;;;;10.48;2.65;;;;;;;;;;5052642;28;20122;-86
2023/10/31 12:49:46;;;;;;;8.25;2.55;;;;;;;;;;5052674;28;20070;-87
2023/10/31 12:52:11;;;;;;;4.95;2.20;;;;;;;;;;5053410;28;20025;-87
2023/10/31 12:54:37;;;;;;;12.07;2.88;;;;;;;;;;5052952;28;20036;-87
2023/10/31 12:57:06;;;;;;;9.38;2.97;;;;;;;;;;5052410;28;20334;-86
2023/10/31 12:59:32;;;;;;;14.40;3.97;;;;;;;;;;5052462;28;20117;-87
2023/10/31 13:01:57;;;;;;;14.57;3.00;;;;;;;;;;5052291;28;20040;-86
2023/10/31 13:04:27;;;;;;;8.20;3.60;;;;;;;;;;5052689;28;20484;-87
2023/10/31 13:06:56;;;;;;;12.52;3.90;;;;;;;;;;5051992;28;20047;-87
2023/10/31 13:09:21;;;;;;;8.73;2.95;;;;;;;;;;5052204;28;20481;-87
2023/10/31 13:11:47;;;;;;;9.10;3.42;;;;;;;;;;5052098;28;20092;-87
2023/10/31 13:14:13;;;;;;;12.38;3.72;;;;;;;;;;5051910;28;20040;-86
2023/10/31 13:16:38;;;;;;;11.02;3.40;;;;;;;;;;5051940;28;20357;-86
2023/10/31 13:19:03;;;;;;;8.88;3.47;;;;;;;;;;5052194;28;20044;-86
2023/10/31 13:21:29;;;;;;;9.52;4.07;;;;;;;;;;5052023;28;20013;-86
2023/10/31 13:23:54;;;;;;;7.80;3.30;;;;;;;;;;5052235;28;20079;-86
2023/10/31 13:26:19;;;;;;;5.13;2.72;;;;;;;;;;5051787;28;20020;-86
2023/10/31 13:28:45;;;;;;;5.25;2.28;;;;;;;;;;5053206;28;20054;-86
2023/10/31 13:31:11;;;;;;;5.72;2.30;;;;;;;;;;5056219;28;20402;-86
2023/10/31 13:33:36;;;;;;;4.80;2.00;;;;;;;;;;5056127;28;20025;-87
2023/10/31 13:36:01;;;;;;;5.68;2.00;;;;;;;;;;5056255;28;20021;-87
2023/10/31 13:38:26;;;;;;;4.45;1.90;;;;;;;;;;5057534;28;20461;-86
2023/10/31 13:40:52;;;;;;;3.42;1.63;;;;;;;;;;5056921;28;20469;-87
2023/10/31 13:43:17;;;;;;;7.03;2.75;;;;;;;;;;5056963;28;20488;-86
2023/10/31 13:45:42;;;;;;;7.10;2.42;;;;;;;;;;5056600;28;20078;-86
2023/10/31 13:48:08;;;;;;;6.18;2.42;;;;;;;;;;5056134;28;20333;-87
2023/10/31 13:50:33;;;;;;;5.20;2.35;;;;;;;;;;5056654;28;20024;-87
2023/10/31 13:52:58;;;;;;;6.40;2.00;;;;;;;;;;5056263;28;20098;-87
2023/10/31 13:55:24;;;;;;;2.88;1.90;;;;;;;;;;5056279;28;20031;-88
2023/10/31 13:57:49;;;;;;;6.63;2.40;;;;;;;;;;5055635;28;20032;-87
2023/10/31 14:00:15;;;;;;;7.50;3.13;;;;;;;;;;5042091;28;20047;-87
2023/10/31 14:02:40;;;;;;;7.93;2.30;;;;;;;;;;5055751;28;20029;-87
2023/10/31 14:05:05;;;;;;;7.90;2.15;;;;;;;;;;5055633;28;20028;-87
2023/10/31 14:07:31;;;;;;;7.07;1.90;;;;;;;;;;5055283;28;20132;-88
2023/10/31 14:09:56;;;;;;;6.25;2.45;;;;;;;;;;5055718;28;20033;-87
2023/10/31 14:12:22;;;;;;;2.08;1.35;;;;;;;;;;5055746;28;20092;-87
2023/10/31 14:14:48;;;;;;;4.70;2.15;;;;;;;;;;5055515;28;20485;-88
2023/10/31 14:17:16;;;;;;;3.67;2.10;;;;;;;;;;5055002;28;20381;-87
2023/10/31 14:19:41;;;;;;;7.88;1.92;;;;;;;;;;5048695;28;20025;-86
2023/10/31 14:22:07;;;;;;;6.03;2.30;;;;;;;;;;5047748;28;20112;-87
2023/10/31 14:24:34;;;;;;;5.05;1.90;;;;;;;;;;5055069;28;20352;-87
2023/10/31 14:27:00;;;;;;;4.65;2.40;;;;;;;;;;5055030;28;20036;-87